Time;durP1;ratioP1;P1;durP2;ratioP2;P2;SDS_P1;SDS_P2;PMS_P1;PMS_P2;Temp;Humidity;BMP_temperature;BMP_pressure;BME280_temperature;BME280_humidity;BME280_pressure;Samples;Min_cycle;Max_cycle;Signal;HPM_P1;HPM_P2
2021/06/14 00:00:02;;;;;;;8.60;4.90;;;13.10;99.90;;;;;;5128783;27;20031;-45
2021/06/14 00:02:27;;;;;;;7.70;5.18;;;13.10;99.90;;;;;;5129227;27;20150;-45
2021/06/14 00:04:53;;;;;;;8.18;4.22;;;13.00;99.90;;;;;;5112919;28;20385;-44
2021/06/14 00:07:20;;;;;;;9.18;4.90;;;12.90;99.90;;;;;;5108295;28;20019;-44
2021/06/14 00:09:45;;;;;;;10.18;4.80;;;12.90;99.90;;;;;;5108255;28;20028;-45
2021/06/14 00:12:13;;;;;;;8.23;4.65;;;12.90;99.90;;;;;;5108620;28;20031;-46
2021/06/14 00:14:39;;;;;;;11.63;5.35;;;12.90;99.90;;;;;;5108662;28;20373;-45
2021/06/14 00:17:05;;;;;;;11.25;5.10;;;12.90;99.90;;;;;;5106534;28;20045;-45
2021/06/14 00:19:31;;;;;;;10.55;5.13;;;12.90;99.90;;;;;;5115927;28;20575;-46
2021/06/14 00:21:57;;;;;;;9.38;4.70;;;12.90;99.90;;;;;;5108599;28;20031;-45
2021/06/14 00:24:22;;;;;;;11.18;5.18;;;12.90;99.90;;;;;;5108429;28;20028;-44
2021/06/14 00:26:48;;;;;;;10.27;4.90;;;12.90;99.90;;;;;;5108347;28;20020;-45
2021/06/14 00:29:13;;;;;;;9.38;5.30;;;12.90;99.90;;;;;;5106597;28;20024;-45
2021/06/14 00:31:39;;;;;;;8.80;5.30;;;12.70;99.90;;;;;;5107202;28;20069;-45
2021/06/14 00:34:04;;;;;;;10.85;4.90;;;12.70;99.90;;;;;;5108588;28;20066;-44
2021/06/14 00:36:30;;;;;;;10.27;5.10;;;12.60;99.90;;;;;;5108257;28;20376;-45
2021/06/14 00:38:55;;;;;;;10.18;5.03;;;12.60;99.90;;;;;;5108278;28;20447;-45
2021/06/14 00:41:21;;;;;;;11.48;5.18;;;12.60;99.90;;;;;;5107848;28;20106;-44
2021/06/14 00:43:46;;;;;;;9.18;5.10;;;12.50;99.90;;;;;;5107083;28;20035;-44
2021/06/14 00:46:13;;;;;;;12.43;5.03;;;12.50;99.90;;;;;;5102859;28;20423;-45
2021/06/14 00:48:39;;;;;;;9.77;5.07;;;12.50;99.90;;;;;;5120209;27;20027;-44
2021/06/14 00:51:07;;;;;;;8.98;5.35;;;12.50;99.90;;;;;;5131749;27;20027;-44
2021/06/14 00:53:41;;;;;;;11.95;6.10;;;12.50;99.90;;;;;;5132488;27;20026;-44
2021/06/14 00:56:09;;;;;;;10.38;5.30;;;12.50;99.90;;;;;;5132598;27;20052;-43
2021/06/14 00:58:35;;;;;;;12.88;4.95;;;12.40;99.90;;;;;;5132354;27;20549;-44
2021/06/14 01:01:02;;;;;;;9.38;5.03;;;12.40;99.90;;;;;;5131611;27;20048;-44
2021/06/14 01:03:27;;;;;;;8.55;5.18;;;12.30;99.90;;;;;;5132562;27;20130;-44
2021/06/14 01:05:58;;;;;;;10.70;5.82;;;12.30;99.90;;;;;;5110597;27;20034;-45
2021/06/14 01:08:25;;;;;;;9.25;5.20;;;12.20;99.90;;;;;;5103900;28;20099;-45
2021/06/14 01:10:51;;;;;;;10.65;5.82;;;12.20;99.90;;;;;;5100412;28;20123;-44
2021/06/14 01:13:31;;;;;;;11.77;4.82;;;12.20;99.90;;;;;;5102678;27;20110;-44
2021/06/14 01:16:19;;;;;;;7.78;4.88;;;12.20;99.90;;;;;;5102649;28;20077;-43
2021/06/14 01:18:51;;;;;;;7.50;5.22;;;12.20;99.90;;;;;;5100696;28;20524;-44
2021/06/14 01:21:20;;;;;;;9.15;5.30;;;12.20;99.90;;;;;;5101405;28;20042;-44
2021/06/14 01:24:10;;;;;;;9.45;5.47;;;12.20;99.90;;;;;;5100415;28;20363;-45
2021/06/14 01:26:44;;;;;;;9.30;5.30;;;12.10;99.90;;;;;;5099354;28;20091;-45
2021/06/14 01:29:11;;;;;;;9.13;5.72;;;12.20;99.90;;;;;;5100938;28;20114;-49
2021/06/14 01:31:39;;;;;;;10.27;5.30;;;12.20;99.90;;;;;;5099751;28;20504;-45
2021/06/14 01:34:07;;;;;;;10.57;5.13;;;12.10;99.90;;;;;;5099922;27;20162;-44
2021/06/14 01:36:35;;;;;;;12.57;5.50;;;12.20;99.90;;;;;;5102473;27;20393;-44
2021/06/14 01:39:03;;;;;;;14.20;6.45;;;12.10;99.90;;;;;;5101421;28;20630;-44
2021/06/14 01:41:31;;;;;;;13.65;5.68;;;12.20;99.90;;;;;;5100417;28;20024;-44
2021/06/14 01:43:58;;;;;;;7.07;4.65;;;12.10;99.90;;;;;;5110303;28;20039;-44
2021/06/14 01:46:28;;;;;;;8.90;5.10;;;12.10;99.90;;;;;;5113884;27;20012;-44
2021/06/14 01:48:55;;;;;;;8.93;4.50;;;12.00;99.90;;;;;;5115515;27;20471;-44
2021/06/14 01:51:25;;;;;;;11.93;5.63;;;12.00;99.90;;;;;;5110610;28;20399;-44
2021/06/14 01:54:03;;;;;;;8.63;5.38;;;11.90;99.90;;;;;;5110979;28;20028;-44
2021/06/14 01:56:36;;;;;;;8.90;4.80;;;11.90;99.90;;;;;;5109737;28;20028;-44
2021/06/14 01:59:04;;;;;;;7.05;4.63;;;11.80;99.90;;;;;;5110515;28;20038;-44
2021/06/14 02:01:32;;;;;;;7.63;4.82;;;11.80;99.90;;;;;;5109482;28;20389;-44
2021/06/14 02:03:59;;;;;;;10.40;5.15;;;11.70;99.90;;;;;;5109237;28;20016;-44
2021/06/14 02:06:28;;;;;;;8.18;5.00;;;11.70;99.90;;;;;;5110332;28;20453;-44
2021/06/14 02:08:58;;;;;;;7.45;4.68;;;11.60;99.90;;;;;;5110488;28;20042;-44
2021/06/14 02:11:24;;;;;;;10.02;5.25;;;11.60;99.90;;;;;;5109975;28;20056;-44
2021/06/14 02:13:51;;;;;;;12.13;5.35;;;11.60;99.90;;;;;;5110740;28;20265;-43
2021/06/14 02:16:18;;;;;;;11.25;5.15;;;11.60;99.90;;;;;;5112908;27;20500;-43
2021/06/14 02:18:45;;;;;;;10.10;5.32;;;11.60;99.90;;;;;;5122108;27;20035;-43
2021/06/14 02:21:11;;;;;;;8.10;5.10;;;11.60;99.90;;;;;;5129934;27;20031;-43
2021/06/14 02:23:37;;;;;;;8.23;5.55;;;11.60;99.90;;;;;;5130806;27;20023;-44
2021/06/14 02:26:02;;;;;;;7.72;5.22;;;11.60;99.90;;;;;;5129539;27;20034;-44
2021/06/14 02:28:28;;;;;;;10.20;5.70;;;11.50;99.90;;;;;;5129468;27;20019;-43
2021/06/14 02:30:53;;;;;;;8.70;5.50;;;11.50;99.90;;;;;;5130313;27;20425;-44
2021/06/14 02:33:19;;;;;;;9.65;4.95;;;11.40;99.90;;;;;;5130586;27;20098;-44
2021/06/14 02:35:44;;;;;;;7.57;4.85;;;11.40;99.90;;;;;;5130739;27;20061;-45
2021/06/14 02:38:11;;;;;;;7.30;5.50;;;11.40;99.90;;;;;;5130514;27;20621;-43
2021/06/14 02:40:39;;;;;;;9.40;5.40;;;11.30;99.90;;;;;;5130051;27;20409;-45
2021/06/14 02:43:08;;;;;;;12.88;5.63;;;11.30;99.90;;;;;;5130464;27;20057;-45
2021/06/14 02:45:36;;;;;;;9.27;5.13;;;11.30;99.90;;;;;;5129099;27;20023;-44
2021/06/14 02:48:03;;;;;;;9.23;5.30;;;11.30;99.90;;;;;;5120175;27;20160;-45
2021/06/14 02:50:34;;;;;;;14.50;5.55;;;11.40;99.90;;;;;;5129869;27;20019;-43
2021/06/14 02:53:04;;;;;;;12.48;6.03;;;11.40;99.90;;;;;;5130403;27;20038;-44
2021/06/14 02:55:33;;;;;;;13.52;6.25;;;11.50;99.90;;;;;;5130483;27;20122;-45
2021/06/14 02:58:00;;;;;;;13.07;5.65;;;11.50;99.90;;;;;;5130206;27;20404;-45
2021/06/14 03:00:28;;;;;;;8.45;5.10;;;11.50;99.90;;;;;;5129586;27;20169;-47
2021/06/14 03:03:06;;;;;;;11.70;6.28;;;11.50;99.90;;;;;;5105349;27;20019;-46
2021/06/14 03:05:32;;;;;;;11.25;5.65;;;11.50;99.90;;;;;;5097183;28;20472;-44
2021/06/14 03:07:59;;;;;;;9.43;5.45;;;11.50;99.90;;;;;;5099338;28;20036;-45
2021/06/14 03:10:26;;;;;;;12.93;5.18;;;11.50;99.90;;;;;;5095253;27;20031;-45
2021/06/14 03:12:57;;;;;;;8.85;5.55;;;11.60;99.90;;;;;;5103053;27;20101;-45
2021/06/14 03:15:25;;;;;;;9.63;5.82;;;11.50;99.90;;;;;;5098816;28;20028;-47
2021/06/14 03:17:52;;;;;;;11.43;5.60;;;11.50;99.90;;;;;;5091579;28;20533;-46
2021/06/14 03:20:22;;;;;;;9.02;5.07;;;11.50;99.90;;;;;;5088293;28;20576;-44
2021/06/14 03:22:48;;;;;;;9.75;6.00;;;11.50;99.90;;;;;;5088632;28;20020;-45
2021/06/14 03:25:15;;;;;;;12.52;5.65;;;11.50;99.90;;;;;;5088829;28;20112;-45
2021/06/14 03:27:43;;;;;;;11.55;5.43;;;11.50;99.90;;;;;;5088642;28;20496;-46
2021/06/14 03:30:10;;;;;;;12.02;5.60;;;11.50;99.90;;;;;;5086712;28;20035;-44
2021/06/14 03:32:39;;;;;;;9.75;6.25;;;11.50;99.90;;;;;;5088665;28;20093;-44
2021/06/14 03:35:07;;;;;;;14.27;6.38;;;11.50;99.90;;;;;;5088646;28;20131;-45
2021/06/14 03:37:34;;;;;;;11.55;6.35;;;11.50;99.90;;;;;;5088354;28;20067;-44
2021/06/14 03:40:00;;;;;;;9.73;5.07;;;11.60;99.90;;;;;;5088808;28;20032;-45
2021/06/14 03:42:30;;;;;;;15.70;5.95;;;11.60;99.90;;;;;;5120610;27;20027;-45
2021/06/14 03:44:56;;;;;;;10.82;6.35;;;11.60;99.90;;;;;;5129510;27;20015;-45
2021/06/14 03:47:21;;;;;;;14.05;5.93;;;11.60;99.90;;;;;;5112157;27;20080;-45
2021/06/14 03:49:47;;;;;;;14.30;5.72;;;11.60;99.90;;;;;;5120142;27;20023;-45
2021/06/14 03:52:12;;;;;;;14.07;6.18;;;11.60;99.90;;;;;;5129124;28;20592;-46
2021/06/14 03:54:38;;;;;;;12.45;6.53;;;11.60;99.90;;;;;;5129366;28;20113;-46
2021/06/14 03:57:04;;;;;;;12.20;5.47;;;11.70;99.90;;;;;;5129480;28;20388;-46
2021/06/14 03:59:29;;;;;;;16.30;6.80;;;11.70;99.90;;;;;;5129072;27;20023;-45
2021/06/14 04:01:55;;;;;;;12.88;6.35;;;11.80;99.90;;;;;;5112836;28;20457;-45
2021/06/14 04:06:53;;;;;;;10.40;5.43;;;11.90;99.90;;;;;;5122412;27;20099;-44
2021/06/14 04:09:19;;;;;;;12.32;5.70;;;11.90;99.90;;;;;;5122567;28;20453;-44
2021/06/14 04:11:44;;;;;;;11.25;5.57;;;12.00;99.90;;;;;;5122043;28;20038;-44
2021/06/14 04:14:09;;;;;;;11.45;5.57;;;12.10;99.90;;;;;;5122004;28;20069;-45
2021/06/14 04:16:35;;;;;;;8.30;5.20;;;12.10;99.90;;;;;;5111028;28;20061;-44
2021/06/14 04:19:00;;;;;;;10.57;5.53;;;12.20;99.90;;;;;;5111351;28;20028;-45
2021/06/14 04:21:26;;;;;;;9.93;5.18;;;12.20;99.90;;;;;;5102982;28;20020;-44
2021/06/14 04:23:52;;;;;;;12.63;6.00;;;12.30;99.90;;;;;;5105349;28;20028;-44
2021/06/14 04:26:17;;;;;;;11.43;5.70;;;12.30;99.90;;;;;;5105346;27;20054;-45
2021/06/14 04:28:43;;;;;;;10.50;5.32;;;12.40;99.90;;;;;;5104041;27;20028;-47
2021/06/14 04:31:09;;;;;;;10.25;4.82;;;12.40;99.90;;;;;;5119918;27;20051;-45
2021/06/14 04:33:34;;;;;;;10.35;6.38;;;12.50;99.90;;;;;;5109221;28;20035;-44
2021/06/14 04:36:02;;;;;;;16.33;6.32;;;12.60;99.90;;;;;;5108827;28;20065;-45
2021/06/14 04:38:28;;;;;;;8.15;5.35;;;12.60;99.90;;;;;;5128488;27;20032;-46
2021/06/14 04:40:53;;;;;;;11.98;5.60;;;12.70;99.90;;;;;;5127147;27;20072;-45
2021/06/14 04:43:19;;;;;;;9.43;5.28;;;12.80;99.90;;;;;;5122667;27;20426;-44
2021/06/14 04:45:44;;;;;;;7.68;4.80;;;12.90;99.90;;;;;;5132904;27;20038;-44
2021/06/14 04:48:10;;;;;;;7.80;4.72;;;13.00;99.90;;;;;;5115031;27;20072;-46
2021/06/14 04:50:36;;;;;;;13.85;5.72;;;13.00;99.90;;;;;;5125410;27;20023;-44
2021/06/14 04:53:01;;;;;;;8.30;4.80;;;13.10;99.90;;;;;;5126481;27;20030;-47
2021/06/14 04:55:27;;;;;;;8.77;5.25;;;13.20;99.90;;;;;;5102075;28;20104;-45
2021/06/14 04:57:52;;;;;;;8.50;5.10;;;13.20;99.90;;;;;;5109835;28;20481;-45
2021/06/14 05:00:19;;;;;;;13.80;5.93;;;13.30;99.90;;;;;;5110247;28;20016;-45
2021/06/14 05:02:45;;;;;;;13.73;5.10;;;13.40;99.90;;;;;;5119834;27;20011;-44
2021/06/14 05:05:11;;;;;;;11.48;5.95;;;13.50;99.90;;;;;;5111397;28;20385;-44
2021/06/14 05:07:37;;;;;;;9.38;5.18;;;13.60;99.90;;;;;;5104364;27;20026;-44
2021/06/14 05:10:03;;;;;;;16.08;5.15;;;13.80;99.90;;;;;;5124229;27;20034;-44
2021/06/14 05:12:29;;;;;;;11.35;4.80;;;13.90;99.90;;;;;;5131266;27;20392;-45
2021/06/14 05:14:54;;;;;;;13.50;5.00;;;14.10;99.90;;;;;;5131516;27;20033;-45
2021/06/14 05:17:20;;;;;;;12.07;5.65;;;14.20;99.90;;;;;;5131622;27;20023;-44
2021/06/14 05:19:46;;;;;;;10.27;5.22;;;14.40;99.90;;;;;;5130748;27;20023;-45
2021/06/14 05:22:12;;;;;;;10.52;5.20;;;14.50;99.90;;;;;;5131365;27;20107;-45
2021/06/14 05:24:37;;;;;;;14.93;5.25;;;14.60;99.90;;;;;;5131581;27;20108;-45
2021/06/14 05:27:03;;;;;;;10.00;5.22;;;14.70;99.90;;;;;;5131400;27;20395;-45
2021/06/14 05:29:29;;;;;;;10.55;4.70;;;14.80;99.90;;;;;;5130919;27;20031;-44
2021/06/14 05:31:54;;;;;;;9.18;4.60;;;15.00;99.90;;;;;;5130897;27;20027;-44
2021/06/14 05:34:21;;;;;;;7.28;4.50;;;15.10;99.90;;;;;;5131708;27;20641;-45
2021/06/14 05:36:46;;;;;;;12.00;5.03;;;15.10;99.90;;;;;;5122501;27;20032;-45
2021/06/14 05:39:12;;;;;;;13.10;4.47;;;15.20;99.90;;;;;;5120069;27;20023;-45
2021/06/14 05:41:38;;;;;;;7.38;4.55;;;15.30;99.90;;;;;;5132012;27;20357;-46
2021/06/14 05:44:04;;;;;;;12.75;4.88;;;15.40;99.90;;;;;;5131717;27;20111;-44
2021/06/14 05:46:29;;;;;;;12.98;4.90;;;15.50;99.90;;;;;;5131376;27;20027;-44
2021/06/14 05:48:55;;;;;;;10.00;4.60;;;15.60;99.90;;;;;;5131447;27;20023;-46
2021/06/14 05:51:21;;;;;;;7.32;4.45;;;15.60;99.90;;;;;;5120745;27;20031;-45
2021/06/14 05:53:49;;;;;;;11.07;3.95;;;15.80;99.90;;;;;;5121484;27;20023;-44
2021/06/14 05:56:16;;;;;;;8.23;4.75;;;15.80;99.90;;;;;;5131556;27;20038;-45
2021/06/14 05:58:41;;;;;;;11.18;5.40;;;16.00;99.90;;;;;;5131219;27;20026;-45
2021/06/14 06:01:07;;;;;;;9.98;4.57;;;16.10;99.90;;;;;;5130498;27;20023;-47
2021/06/14 06:03:33;;;;;;;10.27;4.75;;;16.10;99.90;;;;;;5131039;27;20026;-45
2021/06/14 06:05:58;;;;;;;10.88;5.55;;;16.10;99.90;;;;;;5123221;27;20102;-45
2021/06/14 06:08:24;;;;;;;14.32;4.18;;;16.30;99.90;;;;;;5095462;28;20478;-45
2021/06/14 06:10:50;;;;;;;9.18;4.70;;;16.30;99.90;;;;;;5089523;28;20062;-45
2021/06/14 06:13:16;;;;;;;6.60;4.63;;;16.30;99.90;;;;;;5088758;28;20473;-44
2021/06/14 06:15:41;;;;;;;10.80;4.60;;;16.30;99.90;;;;;;5090304;28;20024;-45
2021/06/14 06:18:07;;;;;;;6.75;4.53;;;16.50;99.90;;;;;;5089810;28;20032;-46
2021/06/14 06:20:32;;;;;;;8.13;4.85;;;16.60;99.90;;;;;;5089382;28;20099;-44
2021/06/14 06:22:58;;;;;;;9.60;4.40;;;16.70;99.90;;;;;;5116131;27;20016;-44
2021/06/14 06:25:25;;;;;;;10.18;4.70;;;16.80;99.90;;;;;;5125297;27;20333;-44
2021/06/14 06:27:51;;;;;;;8.65;4.47;;;16.80;99.90;;;;;;5094171;28;20053;-43
2021/06/14 06:30:23;;;;;;;8.93;4.28;;;16.80;99.90;;;;;;5105920;27;20492;-44
2021/06/14 06:32:49;;;;;;;11.35;4.90;;;17.00;99.90;;;;;;5116287;27;20053;-45
2021/06/14 06:35:15;;;;;;;7.63;4.35;;;17.10;99.90;;;;;;5107710;27;20055;-44
2021/06/14 06:37:41;;;;;;;7.82;4.47;;;17.10;99.90;;;;;;5099804;27;20069;-45
2021/06/14 06:40:07;;;;;;;13.30;4.97;;;17.20;99.90;;;;;;5106951;27;20085;-44
2021/06/14 06:42:34;;;;;;;8.30;4.40;;;17.30;99.90;;;;;;5111281;27;20024;-45
2021/06/14 06:45:00;;;;;;;10.43;4.88;;;17.30;99.90;;;;;;5107642;27;20304;-44
2021/06/14 06:47:25;;;;;;;10.00;4.20;;;17.40;99.90;;;;;;5119221;27;20567;-44
2021/06/14 06:49:51;;;;;;;7.55;4.40;;;17.50;99.90;;;;;;5121529;27;20027;-41
2021/06/14 06:52:17;;;;;;;10.43;4.15;;;17.60;99.90;;;;;;5112744;27;20028;-41
2021/06/14 06:54:42;;;;;;;12.82;5.20;;;17.70;99.70;;;;;;5124244;27;20423;-41
2021/06/14 06:57:08;;;;;;;8.10;4.43;;;17.80;99.10;;;;;;5129747;27;20019;-41
2021/06/14 06:59:34;;;;;;;7.38;4.53;;;17.90;98.80;;;;;;5129146;27;20050;-42
2021/06/14 07:01:59;;;;;;;8.73;4.90;;;17.90;99.00;;;;;;5106257;27;20032;-42
2021/06/14 07:04:25;;;;;;;14.48;5.20;;;18.00;99.00;;;;;;5088945;28;20055;-43
2021/06/14 07:06:51;;;;;;;9.82;5.22;;;18.10;98.50;;;;;;5101449;28;20020;-42
2021/06/14 07:09:17;;;;;;;9.65;4.88;;;18.20;98.40;;;;;;5119211;27;20046;-40
2021/06/14 07:11:42;;;;;;;13.63;4.70;;;18.30;98.10;;;;;;5129449;27;20050;-41
2021/06/14 07:14:08;;;;;;;10.23;4.72;;;18.40;97.30;;;;;;5117143;27;20405;-42
2021/06/14 07:16:34;;;;;;;8.40;4.88;;;18.40;97.90;;;;;;5103080;27;20028;-42
2021/06/14 07:19:01;;;;;;;9.68;4.90;;;18.50;97.90;;;;;;5088474;28;20465;-42
2021/06/14 07:21:27;;;;;;;11.60;4.57;;;18.60;97.10;;;;;;5100976;28;20433;-42
2021/06/14 07:23:53;;;;;;;10.10;4.90;;;18.80;96.20;;;;;;5103968;28;20012;-42
2021/06/14 07:26:19;;;;;;;6.05;3.85;;;18.90;96.00;;;;;;5093305;28;20035;-43
2021/06/14 07:28:45;;;;;;;11.10;4.90;;;19.00;96.10;;;;;;5094949;28;20035;-43
2021/06/14 07:31:11;;;;;;;10.63;4.80;;;19.10;94.70;;;;;;5104247;28;20392;-42
2021/06/14 07:33:37;;;;;;;7.88;4.50;;;19.20;94.50;;;;;;5099739;27;20213;-42
2021/06/14 07:36:04;;;;;;;9.20;3.97;;;19.30;94.10;;;;;;5096724;27;20016;-42
2021/06/14 07:38:30;;;;;;;9.60;4.65;;;19.40;93.80;;;;;;5094309;28;20123;-42
2021/06/14 07:40:56;;;;;;;9.05;4.32;;;19.50;92.80;;;;;;5096971;28;20118;-42
2021/06/14 07:43:22;;;;;;;9.15;5.15;;;19.60;92.70;;;;;;5099608;28;20015;-42
2021/06/14 07:45:48;;;;;;;11.23;5.03;;;19.70;92.30;;;;;;5097114;28;20020;-41
2021/06/14 07:48:15;;;;;;;11.05;4.90;;;19.70;91.60;;;;;;5096763;28;20027;-42
2021/06/14 07:50:42;;;;;;;12.07;5.32;;;19.80;91.30;;;;;;5097279;28;20016;-42
2021/06/14 07:53:08;;;;;;;17.02;5.50;;;19.90;91.40;;;;;;5065628;28;20540;-42
2021/06/14 07:55:35;;;;;;;10.23;4.90;;;20.10;91.50;;;;;;5093477;28;20047;-41
2021/06/14 07:58:01;;;;;;;8.50;4.40;;;20.20;90.80;;;;;;5098250;28;20027;-41
2021/06/14 08:00:27;;;;;;;8.95;4.35;;;20.10;90.30;;;;;;5099764;28;20495;-42
2021/06/14 08:02:53;;;;;;;8.73;5.00;;;20.20;90.20;;;;;;5101273;28;20024;-41
2021/06/14 08:05:19;;;;;;;10.45;4.75;;;20.60;90.30;;;;;;5102588;28;20012;-43
2021/06/14 08:07:45;;;;;;;9.48;4.05;;;20.90;86.60;;;;;;5102291;28;20153;-43
2021/06/14 08:10:15;;;;;;;9.30;4.25;;;21.30;87.80;;;;;;5100544;28;20032;-42
2021/06/14 08:12:47;;;;;;;9.93;4.40;;;21.70;85.50;;;;;;5102818;28;20026;-43
2021/06/14 08:15:14;;;;;;;10.77;4.78;;;22.70;79.30;;;;;;5100607;28;20032;-44
2021/06/14 08:17:40;;;;;;;7.53;3.83;;;24.50;74.50;;;;;;5099491;28;20028;-43
2021/06/14 08:25:37;;;;;;;5.65;3.15;;;27.60;58.30;;;;;;5092453;28;20054;-44
2021/06/14 08:28:04;;;;;;;8.30;4.20;;;28.20;56.70;;;;;;5093932;27;20035;-43
2021/06/14 08:30:30;;;;;;;10.77;4.30;;;28.60;52.40;;;;;;5110626;27;20020;-45
2021/06/14 08:32:57;;;;;;;6.82;3.67;;;29.60;50.10;;;;;;5102976;27;20020;-42
2021/06/14 08:35:25;;;;;;;11.27;4.25;;;30.10;49.60;;;;;;5115558;27;20080;-44
2021/06/14 08:37:52;;;;;;;6.05;3.80;;;30.40;49.00;;;;;;5121516;27;20028;-46
2021/06/14 08:40:20;;;;;;;8.80;3.50;;;31.30;46.70;;;;;;5124362;27;20031;-43
2021/06/14 08:42:46;;;;;;;7.15;4.22;;;31.60;45.80;;;;;;5102753;27;20031;-45
2021/06/14 08:45:13;;;;;;;5.85;3.47;;;31.90;46.00;;;;;;5110646;27;20028;-45
2021/06/14 08:47:41;;;;;;;7.55;3.63;;;31.30;46.00;;;;;;5103548;27;20052;-44
2021/06/14 08:50:09;;;;;;;6.10;3.65;;;32.40;43.90;;;;;;5094421;27;20020;-44
2021/06/14 08:52:36;;;;;;;11.15;3.88;;;32.00;43.30;;;;;;5104757;27;20032;-45
2021/06/14 08:55:03;;;;;;;6.47;3.65;;;32.50;43.20;;;;;;5108054;27;20107;-43
2021/06/14 08:57:29;;;;;;;5.90;3.88;;;33.00;45.40;;;;;;5114154;27;20027;-44
2021/06/14 08:59:54;;;;;;;6.38;3.30;;;33.60;41.70;;;;;;5116474;27;20031;-43
2021/06/14 09:02:20;;;;;;;6.53;3.22;;;33.80;42.50;;;;;;5115703;27;20027;-44
2021/06/14 09:04:45;;;;;;;9.07;3.83;;;33.80;40.50;;;;;;5102230;27;20035;-44
2021/06/14 09:07:11;;;;;;;6.78;3.70;;;34.40;38.40;;;;;;5099806;28;20537;-44
2021/06/14 09:09:37;;;;;;;5.43;3.83;;;34.70;39.00;;;;;;5099298;28;20024;-42
2021/06/14 09:12:03;;;;;;;5.20;3.70;;;35.50;37.90;;;;;;5101251;28;20389;-44
2021/06/14 09:14:31;;;;;;;6.53;3.30;;;33.40;38.40;;;;;;5100713;28;20027;-44
2021/06/14 09:17:10;;;;;;;5.65;3.22;;;33.20;39.10;;;;;;5099476;28;20541;-44
2021/06/14 09:19:42;;;;;;;7.75;3.95;;;33.40;42.00;;;;;;5097620;28;20385;-43
2021/06/14 09:22:19;;;;;;;6.15;4.45;;;33.50;41.90;;;;;;5106136;27;20024;-44
2021/06/14 09:25:06;;;;;;;3.88;3.20;;;33.00;39.60;;;;;;5104502;27;20452;-44
2021/06/14 09:27:42;;;;;;;5.78;3.55;;;34.10;40.30;;;;;;5100582;28;20027;-44
2021/06/14 09:30:15;;;;;;;5.28;3.30;;;33.60;37.60;;;;;;5102199;27;20481;-43
2021/06/14 09:32:59;;;;;;;5.25;3.63;;;32.50;39.80;;;;;;5104925;27;20044;-44
2021/06/14 09:35:31;;;;;;;4.13;3.38;;;32.40;38.60;;;;;;5102633;27;20420;-43
2021/06/14 09:38:04;;;;;;;5.25;2.85;;;31.70;39.30;;;;;;5100789;27;20023;-45
2021/06/14 09:40:39;;;;;;;6.65;3.20;;;32.50;38.70;;;;;;5099013;28;20461;-46
2021/06/14 09:43:07;;;;;;;4.72;3.10;;;32.40;39.70;;;;;;5099808;28;20032;-44
2021/06/14 09:45:39;;;;;;;5.40;3.30;;;33.20;39.90;;;;;;5099919;28;20015;-45
2021/06/14 09:48:18;;;;;;;4.63;3.13;;;31.80;38.40;;;;;;5100226;28;20033;-43
2021/06/14 09:50:46;;;;;;;5.35;2.55;;;33.10;38.30;;;;;;5098292;28;20111;-43
2021/06/14 09:53:13;;;;;;;5.03;2.85;;;35.00;36.70;;;;;;5109956;27;20043;-44
2021/06/14 09:55:41;;;;;;;5.32;2.30;;;36.20;35.50;;;;;;5099372;28;20030;-44
2021/06/14 09:58:21;;;;;;;6.97;2.65;;;35.80;33.50;;;;;;5098654;28;20626;-45
2021/06/14 10:00:55;;;;;;;3.47;2.70;;;34.00;34.00;;;;;;5097871;28;20019;-43
2021/06/14 10:03:23;;;;;;;3.80;2.95;;;34.50;36.00;;;;;;5099377;28;20074;-44
2021/06/14 10:05:51;;;;;;;4.93;3.03;;;35.00;35.90;;;;;;5110912;28;20016;-43
2021/06/14 10:08:37;;;;;;;4.25;2.67;;;35.60;34.20;;;;;;5110219;28;20019;-43
2021/06/14 10:11:12;;;;;;;6.50;2.88;;;35.40;37.90;;;;;;5089596;28;20047;-45
2021/06/14 10:13:41;;;;;;;5.22;3.53;;;35.30;36.90;;;;;;5105171;28;20092;-45
2021/06/14 10:16:15;;;;;;;4.28;2.30;;;35.10;36.50;;;;;;5110749;28;20211;-44
2021/06/14 10:18:51;;;;;;;3.53;2.45;;;36.30;36.70;;;;;;5098789;28;20418;-44
2021/06/14 10:21:43;;;;;;;5.45;3.55;;;36.20;35.70;;;;;;5094917;27;20031;-43
2021/06/14 10:24:12;;;;;;;4.07;2.78;;;34.90;35.30;;;;;;5122369;27;20044;-43
2021/06/14 10:26:40;;;;;;;6.82;3.00;;;34.90;36.70;;;;;;5129742;27;20111;-44
2021/06/14 10:29:08;;;;;;;7.40;3.10;;;35.30;36.90;;;;;;5125049;27;20036;-43
2021/06/14 10:31:38;;;;;;;3.92;2.70;;;36.50;36.80;;;;;;5104768;28;20103;-43
2021/06/14 10:34:04;;;;;;;5.18;2.83;;;35.90;35.30;;;;;;5100325;28;20043;-44
2021/06/14 10:36:31;;;;;;;6.38;3.30;;;36.70;36.10;;;;;;5099993;27;20019;-44
2021/06/14 10:38:57;;;;;;;6.95;3.25;;;36.90;36.60;;;;;;5106169;27;20036;-42
2021/06/14 10:41:24;;;;;;;9.85;6.72;;;37.10;35.70;;;;;;5087741;28;20107;-43
2021/06/14 10:43:50;;;;;;;4.15;3.08;;;36.40;35.80;;;;;;5091972;28;20540;-43
2021/06/14 10:46:19;;;;;;;3.67;2.58;;;36.80;34.80;;;;;;5101757;27;20034;-44
2021/06/14 10:48:46;;;;;;;5.18;3.17;;;36.90;35.40;;;;;;5098316;28;20035;-42
2021/06/14 10:51:17;;;;;;;6.88;3.00;;;37.20;35.90;;;;;;5096492;28;20127;-43
2021/06/14 10:53:43;;;;;;;7.40;2.90;;;37.40;35.90;;;;;;5101457;27;20028;-45
2021/06/14 10:56:14;;;;;;;4.07;2.70;;;36.30;37.00;;;;;;5097820;27;20035;-44
2021/06/14 10:58:43;;;;;;;5.68;2.85;;;36.10;35.70;;;;;;5099887;28;20020;-43
2021/06/14 11:01:16;;;;;;;7.85;3.00;;;36.10;38.50;;;;;;5094427;28;20119;-42
2021/06/14 11:03:46;;;;;;;8.05;3.38;;;36.80;36.30;;;;;;5101594;27;20500;-44
2021/06/14 11:06:14;;;;;;;4.43;2.55;;;36.70;38.20;;;;;;5100136;28;20092;-45
2021/06/14 11:08:40;;;;;;;6.07;3.30;;;36.50;35.40;;;;;;5099444;27;20019;-43
2021/06/14 11:11:07;;;;;;;4.63;3.05;;;34.90;35.80;;;;;;5099713;28;20358;-45
2021/06/14 11:13:33;;;;;;;6.13;2.92;;;35.20;36.40;;;;;;5096890;28;20024;-45
2021/06/14 11:16:01;;;;;;;4.70;2.45;;;35.00;36.50;;;;;;5098381;28;20111;-43
2021/06/14 11:18:32;;;;;;;4.57;2.55;;;35.70;37.70;;;;;;5096570;28;20489;-44
2021/06/14 11:21:17;;;;;;;5.05;3.00;;;36.60;36.20;;;;;;5095886;28;20023;-44
2021/06/14 11:23:46;;;;;;;2.75;2.22;;;36.80;35.30;;;;;;5099460;28;20023;-45
2021/06/14 11:26:13;;;;;;;4.85;2.28;;;36.60;35.70;;;;;;5098333;28;20502;-45
2021/06/14 11:28:45;;;;;;;4.70;2.67;;;34.80;35.20;;;;;;5096878;28;20058;-44
2021/06/14 11:31:24;;;;;;;5.80;2.72;;;34.10;39.20;;;;;;5094433;28;20475;-45
2021/06/14 11:33:52;;;;;;;3.65;2.65;;;35.10;40.10;;;;;;5096782;28;20069;-44
2021/06/14 11:36:25;;;;;;;3.05;2.20;;;35.50;37.50;;;;;;5097130;27;20060;-43
2021/06/14 11:38:53;;;;;;;4.00;2.67;;;36.40;36.10;;;;;;5105331;27;20024;-44
2021/06/14 11:41:30;;;;;;;4.68;2.53;;;36.50;35.90;;;;;;5098281;28;20222;-43
2021/06/14 11:44:22;;;;;;;3.15;2.00;;;36.70;35.70;;;;;;5109478;27;20105;-44
2021/06/14 11:46:52;;;;;;;2.65;2.10;;;36.50;38.00;;;;;;5088394;28;20048;-44
2021/06/14 11:49:18;;;;;;;2.72;2.05;;;36.10;36.10;;;;;;5110417;28;20027;-44
2021/06/14 11:51:44;;;;;;;2.63;2.10;;;36.10;35.90;;;;;;5095287;28;20028;-44
2021/06/14 11:54:09;;;;;;;3.38;2.20;;;36.70;34.70;;;;;;5099847;28;20020;-44
2021/06/14 11:56:38;;;;;;;2.60;2.13;;;36.30;34.50;;;;;;5097902;28;20023;-46
2021/06/14 11:59:06;;;;;;;2.55;2.03;;;36.20;37.60;;;;;;5088112;28;20024;-43
2021/06/14 12:01:34;;;;;;;3.03;1.70;;;36.00;35.90;;;;;;5088454;28;20070;-43
2021/06/14 12:04:02;;;;;;;4.45;2.20;;;34.80;37.20;;;;;;5088395;28;20021;-43
2021/06/14 12:06:28;;;;;;;4.78;2.00;;;34.30;38.50;;;;;;5089084;28;20043;-43
2021/06/14 12:09:26;;;;;;;3.95;2.20;;;33.80;41.30;;;;;;5088382;28;20482;-43
2021/06/14 12:12:10;;;;;;;2.83;2.03;;;33.60;38.20;;;;;;5054702;28;20556;-43
2021/06/14 12:14:35;;;;;;;4.90;2.28;;;33.40;37.40;;;;;;5091315;28;20111;-43
2021/06/14 12:17:04;;;;;;;4.18;2.75;;;32.50;40.10;;;;;;5091741;28;20099;-44
2021/06/14 12:19:33;;;;;;;7.20;2.63;;;31.90;42.10;;;;;;5096542;28;20114;-42
2021/06/14 12:22:06;;;;;;;6.93;2.60;;;31.70;43.50;;;;;;5095651;28;20254;-44
2021/06/14 12:24:37;;;;;;;3.65;2.38;;;31.90;42.20;;;;;;5100928;28;20545;-42
2021/06/14 12:27:04;;;;;;;5.18;2.50;;;31.90;41.70;;;;;;5100912;28;20994;-42
2021/06/14 12:29:30;;;;;;;4.88;2.55;;;31.80;41.60;;;;;;5096497;28;20171;-42
2021/06/14 12:32:06;;;;;;;6.25;2.90;;;31.70;44.10;;;;;;5097857;28;20235;-42
2021/06/14 12:34:34;;;;;;;6.15;2.90;;;31.70;42.30;;;;;;5097687;28;20031;-42
2021/06/14 12:37:06;;;;;;;4.53;2.95;;;30.80;43.80;;;;;;5099006;28;20020;-42
2021/06/14 12:39:33;;;;;;;4.13;2.63;;;30.80;45.20;;;;;;5097456;28;20028;-42
2021/06/14 12:41:58;;;;;;;5.00;3.15;;;30.40;43.80;;;;;;5098176;28;20069;-43
2021/06/14 12:44:24;;;;;;;4.97;3.05;;;30.20;43.10;;;;;;5096845;28;20024;-43
2021/06/14 12:46:49;;;;;;;4.35;3.13;;;29.70;45.50;;;;;;5098929;28;20024;-42
2021/06/14 12:49:28;;;;;;;4.53;2.83;;;29.50;45.40;;;;;;5104521;28;20067;-41
2021/06/14 12:51:54;;;;;;;3.42;2.63;;;29.10;44.40;;;;;;5096152;28;20023;-43
2021/06/14 12:54:20;;;;;;;4.07;2.53;;;29.30;45.80;;;;;;5105128;27;20029;-42